Time;durP1;ratioP1;P1;durP2;ratioP2;P2;SDS_P1;SDS_P2;PMS_P1;PMS_P2;Temp;Humidity;BMP_temperature;BMP_pressure;BME280_temperature;BME280_humidity;BME280_pressure;Samples;Min_cycle;Max_cycle;Signal;HPM_P1;HPM_P2
2021/08/03 00:01:43;;;;;;;1.73;0.80;;;14.80;91.30;;;;;;4979014;28;20158;-68
2021/08/03 00:04:13;;;;;;;2.65;1.00;;;14.80;91.30;;;;;;4980148;28;20084;-68
2021/08/03 00:06:53;;;;;;;2.10;0.90;;;14.80;91.40;;;;;;4992812;28;20023;-68
2021/08/03 00:09:19;;;;;;;1.63;1.10;;;14.80;91.50;;;;;;4979748;28;20045;-68
2021/08/03 00:11:46;;;;;;;3.60;1.05;;;14.70;91.60;;;;;;4975787;28;20190;-68
2021/08/03 00:14:12;;;;;;;2.65;1.08;;;14.70;91.70;;;;;;4977008;28;21245;-68
2021/08/03 00:16:41;;;;;;;4.43;1.02;;;14.70;91.80;;;;;;4993451;28;20023;-68
2021/08/03 00:19:07;;;;;;;1.85;1.00;;;14.80;91.90;;;;;;4978508;28;20109;-68
2021/08/03 00:21:34;;;;;;;2.20;0.93;;;14.80;92.00;;;;;;4978560;28;20119;-68
2021/08/03 00:24:00;;;;;;;2.20;1.00;;;14.80;92.10;;;;;;4976124;28;20069;-68
2021/08/03 00:26:26;;;;;;;1.20;1.00;;;14.80;92.20;;;;;;4999525;28;20026;-68
2021/08/03 00:28:52;;;;;;;3.60;1.20;;;14.80;92.30;;;;;;5000639;28;20015;-68
2021/08/03 00:31:23;;;;;;;2.67;0.90;;;14.80;92.40;;;;;;4976674;28;20396;-68
2021/08/03 00:33:50;;;;;;;1.67;1.23;;;14.70;92.40;;;;;;4977056;28;20384;-67
2021/08/03 00:36:17;;;;;;;2.28;1.10;;;14.80;92.50;;;;;;4976794;28;20069;-68
2021/08/03 00:38:43;;;;;;;2.05;0.98;;;14.70;92.60;;;;;;4977066;28;20022;-68
2021/08/03 00:41:14;;;;;;;2.40;0.90;;;14.70;92.60;;;;;;4976138;28;20384;-69
2021/08/03 00:43:40;;;;;;;1.27;0.77;;;14.70;92.70;;;;;;4982734;28;20026;-68
2021/08/03 00:46:06;;;;;;;2.42;0.70;;;14.70;92.70;;;;;;4977781;28;20018;-68
2021/08/03 00:48:31;;;;;;;4.63;2.40;;;14.70;92.80;;;;;;4978957;28;20069;-68
2021/08/03 00:50:57;;;;;;;1.80;0.80;;;14.70;92.80;;;;;;4976848;28;20027;-68
2021/08/03 00:53:22;;;;;;;2.80;0.90;;;14.70;92.90;;;;;;4977715;28;20035;-68
2021/08/03 00:55:49;;;;;;;1.58;0.82;;;14.70;92.90;;;;;;4976992;28;20094;-68
2021/08/03 00:58:15;;;;;;;1.63;1.00;;;14.70;92.90;;;;;;4975940;28;20029;-68
2021/08/03 01:00:41;;;;;;;1.73;0.80;;;14.60;93.00;;;;;;4979320;28;20022;-68
2021/08/03 01:03:07;;;;;;;1.55;0.93;;;14.70;93.00;;;;;;4992448;28;20515;-68
2021/08/03 01:05:49;;;;;;;1.45;0.80;;;14.70;93.10;;;;;;4979280;28;20043;-68
2021/08/03 01:08:24;;;;;;;1.70;0.90;;;14.70;93.10;;;;;;4976614;28;20078;-67
2021/08/03 01:11:08;;;;;;;1.33;0.70;;;14.70;93.20;;;;;;4977265;28;20023;-68
2021/08/03 01:14:01;;;;;;;1.75;1.00;;;14.70;93.20;;;;;;4975614;28;20027;-68
2021/08/03 01:16:32;;;;;;;3.70;0.73;;;14.70;93.20;;;;;;4975576;28;20035;-68
2021/08/03 01:19:18;;;;;;;1.17;0.73;;;14.60;93.30;;;;;;4977618;28;20118;-68
2021/08/03 01:22:00;;;;;;;0.85;0.60;;;14.70;93.40;;;;;;4989762;28;20027;-68
2021/08/03 01:24:47;;;;;;;1.30;1.00;;;14.60;93.40;;;;;;4978099;28;20021;-68
2021/08/03 01:27:42;;;;;;;3.20;0.80;;;14.60;93.50;;;;;;4976149;28;20030;-68
2021/08/03 01:30:08;;;;;;;1.92;0.70;;;14.60;93.60;;;;;;4976907;28;20037;-68
2021/08/03 01:32:39;;;;;;;1.17;0.75;;;14.60;93.60;;;;;;4974776;28;20027;-68
2021/08/03 01:35:06;;;;;;;1.60;0.77;;;14.60;93.70;;;;;;4978162;28;20471;-68
2021/08/03 01:37:32;;;;;;;2.95;1.05;;;14.60;93.70;;;;;;4990443;28;20061;-68
2021/08/03 01:40:03;;;;;;;1.80;0.80;;;14.50;93.80;;;;;;4976073;28;20027;-69
2021/08/03 01:42:30;;;;;;;2.30;0.90;;;14.60;93.90;;;;;;4973365;28;20027;-68
2021/08/03 01:44:59;;;;;;;2.35;0.88;;;14.60;93.90;;;;;;4977054;28;20026;-68
2021/08/03 01:47:27;;;;;;;2.45;1.02;;;14.50;94.00;;;;;;4975043;28;20504;-68
2021/08/03 01:49:53;;;;;;;2.17;0.90;;;14.50;94.00;;;;;;4974949;28;20038;-68
2021/08/03 01:52:21;;;;;;;1.60;0.70;;;14.50;94.10;;;;;;4978186;28;20106;-68
2021/08/03 01:54:47;;;;;;;1.23;0.73;;;14.50;94.20;;;;;;4975229;28;20011;-68
2021/08/03 01:57:16;;;;;;;1.60;1.10;;;14.50;94.20;;;;;;4975483;28;20069;-68
2021/08/03 01:59:44;;;;;;;3.88;1.10;;;14.50;94.30;;;;;;4974513;28;20545;-68
2021/08/03 02:02:10;;;;;;;1.73;0.80;;;14.50;94.30;;;;;;4978389;28;20030;-68
2021/08/03 02:04:37;;;;;;;1.98;0.88;;;14.50;94.30;;;;;;4976554;28;20030;-68
2021/08/03 02:07:03;;;;;;;1.55;0.73;;;14.50;94.30;;;;;;4990757;28;20481;-68
2021/08/03 02:09:29;;;;;;;1.20;0.90;;;14.50;94.40;;;;;;4976754;28;20092;-68
2021/08/03 02:11:56;;;;;;;1.20;0.75;;;14.40;94.40;;;;;;4988725;28;20039;-68
2021/08/03 02:14:21;;;;;;;1.27;0.60;;;14.50;94.40;;;;;;4975130;28;20098;-67
2021/08/03 02:16:48;;;;;;;2.28;0.90;;;14.50;94.50;;;;;;4974119;28;20110;-68
2021/08/03 02:19:14;;;;;;;1.50;0.70;;;14.40;94.50;;;;;;4978730;28;20123;-68
2021/08/03 02:21:43;;;;;;;2.50;0.70;;;14.50;94.60;;;;;;4975778;28;20015;-68
2021/08/03 02:24:09;;;;;;;1.58;0.90;;;14.50;94.60;;;;;;4981847;28;20026;-68
2021/08/03 02:26:35;;;;;;;1.73;0.80;;;14.40;94.60;;;;;;4988596;28;20099;-68
2021/08/03 02:29:00;;;;;;;1.38;0.68;;;14.40;94.60;;;;;;4974749;28;20101;-68
2021/08/03 02:31:42;;;;;;;1.73;0.80;;;14.40;94.70;;;;;;4973359;28;20027;-68
2021/08/03 02:34:33;;;;;;;2.65;1.15;;;14.40;94.70;;;;;;4976080;28;20078;-68
2021/08/03 02:37:04;;;;;;;0.80;0.60;;;14.40;94.80;;;;;;4977119;28;20023;-69
2021/08/03 02:39:30;;;;;;;1.70;0.70;;;14.40;94.90;;;;;;4972972;28;20389;-68
2021/08/03 02:41:57;;;;;;;1.83;0.68;;;14.40;94.90;;;;;;4973972;28;20066;-68
2021/08/03 02:44:23;;;;;;;1.95;0.88;;;14.30;94.90;;;;;;4988246;28;20410;-68
2021/08/03 02:46:56;;;;;;;1.88;0.90;;;14.40;94.90;;;;;;4977067;28;20408;-68
2021/08/03 02:49:45;;;;;;;1.35;0.75;;;14.30;94.90;;;;;;4975536;28;20022;-69
2021/08/03 02:52:11;;;;;;;2.95;0.93;;;14.30;95.00;;;;;;4977420;28;20022;-68
2021/08/03 02:54:39;;;;;;;1.88;0.70;;;14.30;95.00;;;;;;4974279;28;20025;-68
2021/08/03 02:57:09;;;;;;;4.43;0.75;;;14.30;95.10;;;;;;4974686;28;20085;-68
2021/08/03 02:59:39;;;;;;;1.40;0.90;;;14.30;95.10;;;;;;4972087;28;20027;-68
2021/08/03 03:02:08;;;;;;;2.30;1.08;;;14.30;95.20;;;;;;4974265;28;20022;-68
2021/08/03 03:04:39;;;;;;;2.38;0.82;;;14.30;95.30;;;;;;4976298;28;20069;-68
2021/08/03 03:07:13;;;;;;;1.60;0.80;;;14.30;95.30;;;;;;4975550;28;20508;-69
2021/08/03 03:09:40;;;;;;;1.25;0.90;;;14.30;95.40;;;;;;4974394;28;20484;-69
2021/08/03 03:12:08;;;;;;;1.45;1.05;;;14.30;95.40;;;;;;4972729;28;20027;-69
2021/08/03 03:14:36;;;;;;;1.50;0.85;;;14.30;95.40;;;;;;4973724;28;20097;-68
2021/08/03 03:17:02;;;;;;;2.78;1.00;;;14.30;95.50;;;;;;4974377;28;20154;-68
2021/08/03 03:19:33;;;;;;;1.27;0.80;;;14.30;95.50;;;;;;4974163;28;20026;-68
2021/08/03 03:22:05;;;;;;;1.45;1.00;;;14.30;95.50;;;;;;4989666;28;20026;-68
2021/08/03 03:24:33;;;;;;;1.13;0.70;;;14.30;95.60;;;;;;4976337;28;20030;-68
2021/08/03 03:27:00;;;;;;;1.83;0.82;;;14.30;95.60;;;;;;4974161;28;20105;-68
2021/08/03 03:29:27;;;;;;;1.70;1.02;;;14.30;95.60;;;;;;4989628;28;20170;-68
2021/08/03 03:31:57;;;;;;;2.05;0.82;;;14.30;95.70;;;;;;4973136;28;20038;-68
2021/08/03 03:34:25;;;;;;;2.13;0.93;;;14.30;95.70;;;;;;4975786;28;20066;-68
2021/08/03 03:36:51;;;;;;;2.00;0.93;;;14.20;95.80;;;;;;4975272;28;20014;-68
2021/08/03 03:39:18;;;;;;;1.77;0.90;;;14.20;95.80;;;;;;4969112;28;20455;-68
2021/08/03 03:41:48;;;;;;;2.50;1.08;;;14.20;95.90;;;;;;4965200;28;20054;-68
2021/08/03 03:44:14;;;;;;;2.63;1.00;;;14.20;95.90;;;;;;4972785;28;20030;-68
2021/08/03 03:46:57;;;;;;;1.52;0.90;;;14.20;96.00;;;;;;4973844;28;20035;-68
2021/08/03 03:49:33;;;;;;;2.70;1.02;;;14.20;96.00;;;;;;4978106;28;20416;-68
2021/08/03 03:52:02;;;;;;;2.30;1.02;;;14.20;96.00;;;;;;4976634;28;20026;-68
2021/08/03 03:54:30;;;;;;;1.20;0.90;;;14.20;96.10;;;;;;4973724;28;20031;-67
2021/08/03 03:57:03;;;;;;;2.28;1.65;;;14.30;96.10;;;;;;4988997;28;20026;-68
2021/08/03 03:59:29;;;;;;;1.40;0.90;;;14.30;96.10;;;;;;4975813;28;20042;-67
2021/08/03 04:02:03;;;;;;;1.42;0.77;;;14.30;96.10;;;;;;4972615;28;20118;-68
2021/08/03 04:04:30;;;;;;;1.77;1.10;;;14.30;96.20;;;;;;4975044;28;20465;-67
2021/08/03 04:06:57;;;;;;;1.73;1.00;;;14.20;96.20;;;;;;4974426;28;20069;-68
2021/08/03 04:09:24;;;;;;;1.88;1.08;;;14.20;96.20;;;;;;4990422;28;20022;-67
2021/08/03 04:11:50;;;;;;;1.85;1.15;;;14.20;96.30;;;;;;4972142;28;20026;-68
2021/08/03 04:14:22;;;;;;;2.13;0.98;;;14.20;96.30;;;;;;4972718;28;20354;-67
2021/08/03 04:16:48;;;;;;;2.15;1.25;;;14.20;96.30;;;;;;4973005;28;20487;-67
2021/08/03 04:19:14;;;;;;;2.10;1.00;;;14.20;96.60;;;;;;4974976;28;20035;-68
2021/08/03 04:21:40;;;;;;;3.97;0.93;;;14.30;96.40;;;;;;4974919;28;20073;-68
2021/08/03 04:24:05;;;;;;;3.20;1.30;;;14.30;96.40;;;;;;4974748;28;20094;-67
2021/08/03 04:26:32;;;;;;;2.22;1.30;;;14.20;96.40;;;;;;4973738;28;20015;-67
2021/08/03 04:28:57;;;;;;;1.90;1.20;;;14.30;96.40;;;;;;4988399;28;20027;-68
2021/08/03 04:31:23;;;;;;;2.00;1.10;;;14.30;96.40;;;;;;4973895;28;20045;-68
2021/08/03 04:33:50;;;;;;;2.95;1.00;;;14.30;96.40;;;;;;4975037;28;20027;-68
2021/08/03 04:36:16;;;;;;;2.13;1.05;;;14.30;96.50;;;;;;4977102;28;20034;-67
2021/08/03 04:38:41;;;;;;;2.25;1.17;;;14.30;96.50;;;;;;4976664;28;20014;-67
2021/08/03 04:41:07;;;;;;;2.20;1.40;;;14.30;96.50;;;;;;4991282;28;20026;-67
2021/08/03 04:43:33;;;;;;;2.13;1.45;;;14.30;96.50;;;;;;4974918;28;20026;-67
2021/08/03 04:45:58;;;;;;;2.53;1.63;;;14.30;96.50;;;;;;4976708;28;20060;-68
2021/08/03 04:48:24;;;;;;;2.55;1.52;;;14.30;96.60;;;;;;4978379;28;20074;-67
2021/08/03 04:50:49;;;;;;;3.22;1.52;;;14.30;96.60;;;;;;4991629;28;20396;-68
2021/08/03 04:53:15;;;;;;;3.30;1.60;;;14.30;96.60;;;;;;4978492;28;20109;-67
2021/08/03 04:55:40;;;;;;;3.03;1.80;;;14.30;96.70;;;;;;4977631;28;20015;-68
2021/08/03 04:58:06;;;;;;;2.47;1.88;;;14.30;96.70;;;;;;4976265;28;20484;-67
2021/08/03 05:00:32;;;;;;;1.85;1.63;;;14.30;96.70;;;;;;4976042;28;20023;-68
2021/08/03 05:02:57;;;;;;;2.63;1.70;;;14.30;96.70;;;;;;4977803;28;20035;-68
2021/08/03 05:05:24;;;;;;;1.98;1.20;;;14.30;96.80;;;;;;4977819;28;20026;-68
2021/08/03 05:07:58;;;;;;;2.33;1.45;;;14.40;96.80;;;;;;4978630;28;20057;-67
2021/08/03 05:10:24;;;;;;;3.38;1.27;;;14.40;96.80;;;;;;4976812;28;20074;-68
2021/08/03 05:12:50;;;;;;;2.05;1.50;;;14.40;96.80;;;;;;4977126;28;20081;-67
2021/08/03 05:15:16;;;;;;;2.13;1.30;;;14.50;96.80;;;;;;4975767;28;20481;-67
2021/08/03 05:17:42;;;;;;;2.45;1.40;;;14.50;96.80;;;;;;4975675;28;20023;-67
2021/08/03 05:20:08;;;;;;;3.72;1.75;;;14.50;96.80;;;;;;4977629;28;20535;-68
2021/08/03 05:22:33;;;;;;;3.40;1.65;;;14.50;96.80;;;;;;4979027;28;20459;-68
2021/08/03 05:24:59;;;;;;;3.47;1.80;;;14.50;96.80;;;;;;4976728;28;20098;-67
2021/08/03 05:27:25;;;;;;;3.35;1.83;;;14.60;96.80;;;;;;4976360;28;20031;-68
2021/08/03 05:29:51;;;;;;;3.17;1.95;;;14.60;96.80;;;;;;4975928;28;20388;-67
2021/08/03 05:32:16;;;;;;;2.47;1.77;;;14.70;96.80;;;;;;4975306;28;20018;-67
2021/08/03 05:34:42;;;;;;;2.63;1.80;;;14.70;96.80;;;;;;4977576;28;20023;-67
2021/08/03 05:37:07;;;;;;;3.45;1.90;;;14.70;96.80;;;;;;4977658;28;20026;-67
2021/08/03 05:39:33;;;;;;;5.13;2.80;;;14.80;96.80;;;;;;4975891;28;20045;-68
2021/08/03 05:42:00;;;;;;;4.50;2.78;;;14.80;96.90;;;;;;4975696;28;20496;-67
2021/08/03 05:44:26;;;;;;;5.03;3.70;;;14.80;97.00;;;;;;4984439;28;20034;-68
2021/08/03 05:46:52;;;;;;;4.43;3.40;;;14.80;97.00;;;;;;4988782;28;20501;-67
2021/08/03 05:49:38;;;;;;;4.25;3.47;;;14.90;97.10;;;;;;4988864;28;20040;-67
2021/08/03 05:52:03;;;;;;;4.25;3.58;;;14.90;97.10;;;;;;4994201;28;20125;-67
2021/08/03 05:54:29;;;;;;;5.47;4.78;;;14.90;97.30;;;;;;4992737;28;20495;-67
2021/08/03 05:59:49;;;;;;;6.15;4.05;;;15.00;97.40;;;;;;4994188;28;20038;-67
2021/08/03 06:02:14;;;;;;;5.88;4.78;;;15.00;97.50;;;;;;4994451;28;20034;-67
2021/08/03 06:04:39;;;;;;;7.85;5.85;;;15.10;97.50;;;;;;4993031;28;20022;-67
2021/08/03 06:07:08;;;;;;;6.65;5.85;;;15.10;97.60;;;;;;4994135;28;20031;-67
2021/08/03 06:09:36;;;;;;;10.40;7.78;;;15.20;97.60;;;;;;4992801;28;20034;-67
2021/08/03 06:12:03;;;;;;;7.88;7.07;;;15.30;97.70;;;;;;4990562;28;20432;-67
2021/08/03 06:14:39;;;;;;;10.07;7.93;;;15.30;97.70;;;;;;4974410;28;20126;-67
2021/08/03 06:17:08;;;;;;;11.80;9.05;;;15.40;97.80;;;;;;4972949;28;20027;-68
2021/08/03 06:19:46;;;;;;;11.23;10.00;;;15.50;97.90;;;;;;4981710;28;20026;-67
2021/08/03 06:22:13;;;;;;;11.10;10.00;;;15.50;97.90;;;;;;4992900;28;20041;-68
2021/08/03 06:24:40;;;;;;;11.30;10.07;;;15.60;98.00;;;;;;4993439;28;20072;-67
2021/08/03 06:27:12;;;;;;;12.43;11.13;;;15.60;98.00;;;;;;4992122;28;20022;-67
2021/08/03 06:29:39;;;;;;;14.10;11.68;;;15.70;98.00;;;;;;4993629;28;20030;-67
2021/08/03 06:32:07;;;;;;;14.55;11.35;;;15.70;98.00;;;;;;4993240;28;20034;-67
2021/08/03 06:34:37;;;;;;;15.25;12.82;;;15.80;98.10;;;;;;4993278;28;20015;-67
2021/08/03 06:37:04;;;;;;;15.15;13.32;;;15.80;98.10;;;;;;4993266;28;20033;-67
2021/08/03 06:39:29;;;;;;;15.32;12.63;;;15.90;98.10;;;;;;4980457;28;20030;-67
2021/08/03 06:45:14;;;;;;;13.45;12.05;;;16.00;98.10;;;;;;4988047;28;20066;-67
2021/08/03 06:47:52;;;;;;;13.33;11.93;;;16.00;98.10;;;;;;4986519;28;20065;-67
2021/08/03 06:50:20;;;;;;;14.60;12.40;;;16.00;98.00;;;;;;4993417;28;20160;-67
2021/08/03 06:52:47;;;;;;;12.57;11.23;;;16.10;98.00;;;;;;4993434;28;20472;-67
2021/08/03 06:55:15;;;;;;;12.52;10.65;;;16.10;98.00;;;;;;4989910;28;20473;-67
2021/08/03 06:57:51;;;;;;;12.77;10.73;;;16.20;97.90;;;;;;4992181;28;20029;-67
2021/08/03 07:00:17;;;;;;;13.55;11.40;;;16.30;97.80;;;;;;4987842;28;20022;-67
2021/08/03 07:02:44;;;;;;;9.75;8.75;;;16.30;97.80;;;;;;4991669;28;20022;-67
2021/08/03 07:05:16;;;;;;;10.10;9.05;;;16.40;97.80;;;;;;4993267;28;20038;-67
2021/08/03 07:07:43;;;;;;;12.45;10.30;;;16.50;97.70;;;;;;4992959;28;20395;-67
2021/08/03 07:10:09;;;;;;;14.65;12.40;;;16.50;97.60;;;;;;4993169;28;20105;-67
2021/08/03 07:12:35;;;;;;;12.75;11.07;;;16.60;97.50;;;;;;4992902;28;20384;-67
2021/08/03 07:17:50;;;;;;;12.35;10.38;;;16.60;97.30;;;;;;4993153;28;20034;-67
2021/08/03 07:20:16;;;;;;;12.77;10.82;;;16.70;97.30;;;;;;4991664;28;20085;-67
2021/08/03 07:22:42;;;;;;;13.80;12.30;;;16.80;97.20;;;;;;4990026;28;20037;-67
2021/08/03 07:25:10;;;;;;;12.73;11.43;;;16.80;97.10;;;;;;4975997;28;20062;-67
2021/08/03 07:27:36;;;;;;;13.57;11.73;;;16.90;97.00;;;;;;4992533;28;20026;-67
2021/08/03 07:30:04;;;;;;;11.98;9.95;;;17.00;96.90;;;;;;4978713;28;20023;-67
2021/08/03 07:33:07;;;;;;;14.07;12.50;;;17.10;96.70;;;;;;4977557;28;20146;-67
2021/08/03 07:35:33;;;;;;;12.65;11.27;;;17.20;96.50;;;;;;4981338;28;20126;-67
2021/08/03 07:37:58;;;;;;;12.07;10.68;;;17.30;96.30;;;;;;4992331;28;20105;-67
2021/08/03 07:40:24;;;;;;;13.68;11.65;;;17.30;96.10;;;;;;4992316;28;20412;-67
2021/08/03 07:42:49;;;;;;;12.32;10.93;;;17.40;95.90;;;;;;4987794;28;20074;-67
2021/08/03 07:45:15;;;;;;;14.90;13.25;;;17.50;95.80;;;;;;4983626;28;20050;-67
2021/08/03 07:47:40;;;;;;;14.60;11.23;;;17.60;95.60;;;;;;4992337;28;20052;-67
2021/08/03 07:50:06;;;;;;;14.15;12.25;;;17.70;95.20;;;;;;4983502;28;20019;-66
2021/08/03 07:52:33;;;;;;;15.07;11.27;;;17.70;94.40;;;;;;4990603;28;20034;-67
2021/08/03 07:54:58;;;;;;;14.02;11.15;;;17.80;94.20;;;;;;4987899;28;20027;-66
2021/08/03 07:57:24;;;;;;;12.57;9.70;;;17.80;93.80;;;;;;4985168;28;20487;-67
2021/08/03 07:59:51;;;;;;;11.10;9.32;;;17.90;93.80;;;;;;4991992;28;20018;-67
2021/08/03 08:02:16;;;;;;;11.98;9.23;;;18.00;93.50;;;;;;4990889;28;20022;-66
2021/08/03 08:04:50;;;;;;;9.55;6.95;;;18.10;92.90;;;;;;4992115;28;20068;-67
2021/08/03 08:07:15;;;;;;;10.10;7.80;;;18.30;92.90;;;;;;4992345;28;20030;-66
2021/08/03 08:09:41;;;;;;;6.47;5.63;;;18.40;92.40;;;;;;4993086;28;20027;-67
2021/08/03 08:12:06;;;;;;;8.23;6.65;;;18.50;92.00;;;;;;4994455;28;20033;-67
2021/08/03 08:14:34;;;;;;;8.80;4.93;;;18.50;90.10;;;;;;4995054;28;20035;-67
2021/08/03 08:17:00;;;;;;;4.93;4.10;;;18.50;88.90;;;;;;4994484;28;20392;-67
2021/08/03 08:19:26;;;;;;;4.82;3.28;;;18.60;89.70;;;;;;4995955;28;20464;-68
2021/08/03 08:21:52;;;;;;;7.53;3.08;;;18.70;90.20;;;;;;4995576;28;20443;-67
2021/08/03 08:24:18;;;;;;;6.13;4.63;;;18.90;89.40;;;;;;4995663;28;20124;-67
2021/08/03 08:26:45;;;;;;;9.35;5.72;;;18.90;88.10;;;;;;4995702;28;20022;-67
2021/08/03 08:29:10;;;;;;;7.32;5.60;;;18.90;86.70;;;;;;4993347;28;20524;-67
2021/08/03 08:31:36;;;;;;;8.25;5.05;;;18.80;85.20;;;;;;4995072;28;20037;-67
2021/08/03 08:34:02;;;;;;;9.77;5.90;;;18.80;85.50;;;;;;4994600;28;20014;-67
2021/08/03 08:36:27;;;;;;;15.50;6.53;;;18.80;85.80;;;;;;4995272;28;20022;-68
2021/08/03 08:38:53;;;;;;;12.00;7.30;;;18.80;85.40;;;;;;4995107;28;20030;-67
2021/08/03 08:41:19;;;;;;;11.43;6.22;;;18.70;84.80;;;;;;4993760;28;20104;-67
2021/08/03 08:43:44;;;;;;;8.55;4.90;;;18.80;85.40;;;;;;4988649;28;20394;-67
2021/08/03 08:46:10;;;;;;;7.47;4.20;;;18.90;85.90;;;;;;4993567;28;20504;-67
2021/08/03 08:48:55;;;;;;;7.57;4.40;;;19.00;86.00;;;;;;4995158;28;20392;-67
2021/08/03 08:51:21;;;;;;;7.65;3.97;;;19.20;86.50;;;;;;4988450;28;20038;-67
2021/08/03 08:53:49;;;;;;;5.47;3.58;;;19.30;85.70;;;;;;4994909;28;20060;-67
2021/08/03 08:56:14;;;;;;;8.88;6.57;;;19.50;85.80;;;;;;4994908;28;20053;-67
2021/08/03 08:58:43;;;;;;;7.22;5.47;;;19.50;84.80;;;;;;4978244;28;20101;-67
2021/08/03 09:01:08;;;;;;;13.50;6.13;;;19.40;84.70;;;;;;4993659;28;20109;-67
2021/08/03 09:03:34;;;;;;;7.35;5.07;;;19.30;84.50;;;;;;4989704;28;20110;-67
2021/08/03 09:06:02;;;;;;;6.60;4.53;;;19.40;85.10;;;;;;4994024;28;20042;-67
2021/08/03 09:08:43;;;;;;;6.55;4.80;;;19.40;85.00;;;;;;4975545;28;20031;-66
2021/08/03 09:11:11;;;;;;;6.43;4.38;;;19.60;84.80;;;;;;4978303;28;20123;-67
2021/08/03 09:13:56;;;;;;;6.15;3.70;;;19.70;84.60;;;;;;4980808;28;20023;-67
2021/08/03 09:16:24;;;;;;;5.22;3.90;;;19.80;84.40;;;;;;4978747;28;20018;-67
2021/08/03 09:18:53;;;;;;;6.68;4.95;;;19.90;83.90;;;;;;4994375;28;20439;-67
2021/08/03 09:21:24;;;;;;;8.85;4.70;;;19.80;82.40;;;;;;4993968;28;20275;-68
2021/08/03 09:23:55;;;;;;;8.18;4.97;;;19.60;81.80;;;;;;4994368;28;20030;-67
2021/08/03 09:26:46;;;;;;;9.13;5.18;;;19.50;81.90;;;;;;4994419;28;20345;-67
2021/08/03 09:29:13;;;;;;;6.40;4.50;;;19.40;82.20;;;;;;4994429;28;20031;-67
2021/08/03 09:31:41;;;;;;;8.10;4.63;;;19.30;82.60;;;;;;4992906;28;20034;-67
2021/08/03 09:34:16;;;;;;;8.00;4.78;;;19.30;82.90;;;;;;4991770;28;20030;-67
2021/08/03 09:36:49;;;;;;;4.95;3.85;;;19.30;82.90;;;;;;4994341;28;20014;-67
2021/08/03 09:39:45;;;;;;;10.02;6.50;;;19.40;83.10;;;;;;5000544;28;20370;-67
2021/08/03 09:42:12;;;;;;;9.02;6.55;;;19.50;81.80;;;;;;4976756;28;20022;-67
2021/08/03 09:44:51;;;;;;;8.70;5.32;;;19.30;81.10;;;;;;4994267;28;20030;-67
2021/08/03 09:47:18;;;;;;;7.53;5.57;;;19.20;82.10;;;;;;4994087;28;20129;-67
2021/08/03 09:49:48;;;;;;;9.05;5.45;;;19.20;82.40;;;;;;4994550;28;20066;-67
2021/08/03 09:52:16;;;;;;;5.60;4.45;;;19.10;81.80;;;;;;4977804;28;21409;-67
2021/08/03 09:54:41;;;;;;;8.13;4.95;;;19.10;81.80;;;;;;4982669;28;20395;-67
2021/08/03 09:57:25;;;;;;;7.65;5.63;;;19.30;81.60;;;;;;4993751;28;20018;-67
2021/08/03 09:59:52;;;;;;;7.05;4.30;;;19.30;80.80;;;;;;4993833;28;20026;-67
2021/08/03 10:02:23;;;;;;;8.57;5.00;;;19.20;81.70;;;;;;4993577;28;20388;-67
2021/08/03 10:04:50;;;;;;;6.90;4.78;;;19.30;81.30;;;;;;4981175;28;20036;-67
2021/08/03 10:07:16;;;;;;;8.38;5.20;;;19.20;80.90;;;;;;4993440;28;20034;-67
2021/08/03 10:09:42;;;;;;;8.82;6.10;;;19.20;81.50;;;;;;4993651;28;20398;-68
2021/08/03 10:12:09;;;;;;;8.15;5.85;;;19.20;82.10;;;;;;4992307;28;20034;-68
2021/08/03 10:14:34;;;;;;;13.27;5.85;;;19.30;83.60;;;;;;4992317;28;20029;-67
2021/08/03 10:17:00;;;;;;;8.43;4.85;;;19.40;81.80;;;;;;4993254;28;20023;-67
2021/08/03 10:19:30;;;;;;;8.65;6.13;;;19.40;81.60;;;;;;4993852;28;20023;-68
2021/08/03 10:22:20;;;;;;;10.77;6.85;;;19.60;81.20;;;;;;4991989;28;20026;-67
2021/08/03 10:25:07;;;;;;;9.73;6.80;;;19.70;81.20;;;;;;4993378;28;20365;-67
2021/08/03 10:27:43;;;;;;;8.05;5.72;;;19.60;80.60;;;;;;4992904;28;20053;-67
2021/08/03 10:30:29;;;;;;;10.65;7.55;;;19.70;80.30;;;;;;4992152;28;20743;-67
2021/08/03 10:32:56;;;;;;;8.98;7.07;;;19.70;80.90;;;;;;4991747;28;20018;-67
2021/08/03 10:35:49;;;;;;;8.23;6.70;;;19.70;81.20;;;;;;4989059;28;20480;-67
2021/08/03 10:38:18;;;;;;;11.25;7.50;;;19.70;80.10;;;;;;5005491;28;20034;-67
2021/08/03 10:40:44;;;;;;;;;;;19.70;80.40;;;;;;4989182;28;20515;-67
2021/08/03 10:43:34;;;;;;;10.25;7.68;;;19.70;80.40;;;;;;4993039;28;19914;-68
2021/08/03 10:46:08;;;;;;;8.18;5.60;;;19.80;79.50;;;;;;4986961;28;20096;-67
2021/08/03 10:48:37;;;;;;;8.27;5.57;;;19.80;76.80;;;;;;4992411;28;20042;-69
2021/08/03 10:51:18;;;;;;;8.80;6.68;;;19.80;78.20;;;;;;4992495;28;20436;-68
2021/08/03 10:54:02;;;;;;;10.68;8.25;;;19.90;77.90;;;;;;4992072;28;20025;-68
2021/08/03 10:56:52;;;;;;;9.35;7.35;;;19.90;79.00;;;;;;4992471;28;20093;-67
2021/08/03 10:59:37;;;;;;;8.02;7.20;;;20.10;79.20;;;;;;4991408;28;20025;-67
2021/08/03 11:02:29;;;;;;;14.32;9.00;;;20.40;79.50;;;;;;4992334;28;20026;-67
2021/08/03 11:04:56;;;;;;;13.95;10.50;;;20.30;79.20;;;;;;4986152;28;20026;-67
2021/08/03 11:07:32;;;;;;;10.65;9.25;;;20.30;79.60;;;;;;4990929;28;20112;-67
2021/08/03 11:10:03;;;;;;;12.35;9.93;;;20.40;79.70;;;;;;4992527;28;20472;-67
2021/08/03 11:12:41;;;;;;;14.50;11.50;;;20.30;80.00;;;;;;4992762;28;20025;-68
2021/08/03 11:15:22;;;;;;;13.45;12.07;;;20.40;79.50;;;;;;4992824;28;20023;-67
2021/08/03 11:18:34;;;;;;;13.38;11.98;;;20.40;79.60;;;;;;4990994;28;20109;-67
2021/08/03 11:21:24;;;;;;;14.13;12.65;;;20.40;79.60;;;;;;4989565;28;20504;-67
2021/08/03 11:24:06;;;;;;;12.00;10.60;;;20.50;80.00;;;;;;4992490;28;20196;-68
2021/08/03 11:26:54;;;;;;;13.85;12.38;;;20.50;80.20;;;;;;4989179;28;20034;-67
2021/08/03 11:29:33;;;;;;;13.43;12.13;;;20.60;80.00;;;;;;4976189;28;20057;-67
2021/08/03 11:32:00;;;;;;;;;;;20.70;79.30;;;;;;4975792;28;20030;-68
2021/08/03 11:34:37;;;;;;;9.13;7.75;;;20.70;79.10;;;;;;4980228;28;20055;-68
2021/08/03 11:37:07;;;;;;;10.07;9.02;;;20.90;79.00;;;;;;4991959;28;20120;-68
2021/08/03 11:39:45;;;;;;;11.90;8.93;;;21.20;77.20;;;;;;4991651;28;20365;-67
2021/08/03 11:42:12;;;;;;;8.88;5.72;;;21.40;75.90;;;;;;4983666;28;20031;-67
2021/08/03 11:44:39;;;;;;;11.02;8.60;;;21.70;76.20;;;;;;4988550;28;20594;-68
2021/08/03 11:47:09;;;;;;;9.40;7.95;;;22.00;74.30;;;;;;4995826;28;20047;-68
2021/08/03 11:49:43;;;;;;;7.10;5.25;;;22.00;74.20;;;;;;4994078;28;20081;-67
2021/08/03 11:52:21;;;;;;;13.00;8.32;;;22.20;73.80;;;;;;4996794;28;20030;-68
2021/08/03 11:54:56;;;;;;;7.75;5.65;;;22.20;72.50;;;;;;4996447;28;20117;-68
2021/08/03 11:57:26;;;;;;;12.68;6.40;;;22.40;73.00;;;;;;4995006;28;20037;-67
2021/08/03 11:59:59;;;;;;;10.93;8.38;;;22.70;72.60;;;;;;4996076;28;20022;-67
2021/08/03 12:02:25;;;;;;;7.47;6.47;;;22.80;70.60;;;;;;4996056;28;20030;-68
2021/08/03 12:05:04;;;;;;;11.82;9.57;;;22.80;70.50;;;;;;4996008;28;20023;-68
2021/08/03 12:07:29;;;;;;;8.13;6.28;;;22.90;68.90;;;;;;4996162;28;20145;-68
2021/08/03 12:09:55;;;;;;;11.18;7.97;;;22.90;69.40;;;;;;4993903;28;20117;-68
2021/08/03 12:12:21;;;;;;;10.45;8.55;;;22.90;68.60;;;;;;4995697;28;20022;-68
2021/08/03 12:14:46;;;;;;;8.20;7.20;;;23.00;68.60;;;;;;4992627;28;20412;-68
2021/08/03 12:17:25;;;;;;;7.93;6.22;;;23.20;68.80;;;;;;4993387;28;20054;-68
2021/08/03 12:19:51;;;;;;;10.38;6.45;;;23.60;68.00;;;;;;4972523;28;20021;-68
2021/08/03 12:22:27;;;;;;;6.82;5.93;;;23.60;67.30;;;;;;4995650;28;20043;-67
2021/08/03 12:25:00;;;;;;;7.40;5.80;;;23.90;66.30;;;;;;4995646;28;20022;-68
2021/08/03 12:28:09;;;;;;;6.18;4.40;;;24.00;65.50;;;;;;4995754;28;20400;-67
2021/08/03 12:30:37;;;;;;;7.33;5.97;;;24.40;65.70;;;;;;4995075;28;20035;-68
2021/08/03 12:33:03;;;;;;;4.70;3.85;;;24.30;63.80;;;;;;4991760;28;20022;-68
2021/08/03 12:35:29;;;;;;;7.07;4.63;;;24.40;64.50;;;;;;4994800;28;20015;-68
2021/08/03 12:38:44;;;;;;;5.40;3.70;;;24.40;64.40;;;;;;4994192;28;20030;-68
2021/08/03 12:41:18;;;;;;;4.53;3.22;;;24.60;64.90;;;;;;4995547;28;20018;-68
2021/08/03 12:43:51;;;;;;;4.57;3.38;;;24.60;65.30;;;;;;4990770;28;20031;-68
2021/08/03 12:46:16;;;;;;;4.03;3.53;;;24.70;64.90;;;;;;4994701;28;20057;-67
2021/08/03 12:48:51;;;;;;;3.95;3.55;;;24.60;64.80;;;;;;4992568;28;20038;-68
2021/08/03 12:51:56;;;;;;;4.10;3.42;;;24.60;64.80;;;;;;4989949;28;20381;-67
2021/08/03 12:54:22;;;;;;;4.43;3.78;;;24.50;65.10;;;;;;4981139;28;20459;-69
2021/08/03 12:57:03;;;;;;;5.00;4.40;;;24.50;65.50;;;;;;4993612;28;20480;-67
2021/08/03 12:59:35;;;;;;;5.65;4.25;;;24.40;65.40;;;;;;4988966;28;20227;-67
2021/08/03 13:02:02;;;;;;;4.75;4.35;;;24.40;65.70;;;;;;4990749;28;20025;-68
2021/08/03 13:04:27;;;;;;;6.03;5.32;;;24.30;65.90;;;;;;4985964;28;20084;-67
2021/08/03 13:06:55;;;;;;;5.85;5.35;;;24.20;66.20;;;;;;4994842;28;20428;-67
2021/08/03 13:09:33;;;;;;;;;;;;;;;;;;;;;
2021/08/03 13:12:00;;;;;;;5.43;4.95;;;24.10;66.60;;;;;;4995348;28;20034;-68